Time;durP1;ratioP1;P1;durP2;ratioP2;P2;SDS_P1;SDS_P2;PMS_P1;PMS_P2;Temp;Humidity;BMP_temperature;BMP_pressure;BME280_temperature;BME280_humidity;BME280_pressure;Samples;Min_cycle;Max_cycle;Signal;HPM_P1;HPM_P2
2022/07/13 00:00:25;;;;;;;1.88;1.20;;;21.40;96.80;;;;;;5132202;27;45413;-71
2022/07/13 00:02:53;;;;;;;1.27;1.05;;;21.40;96.60;;;;;;5138236;27;45549;-71
2022/07/13 00:05:20;;;;;;;4.30;1.40;;;21.40;97.50;;;;;;5132046;27;45461;-71
2022/07/13 00:07:47;;;;;;;1.95;1.20;;;21.40;98.10;;;;;;5131355;27;46580;-70
2022/07/13 00:10:14;;;;;;;4.30;1.73;;;21.40;98.50;;;;;;5135958;27;45446;-71
2022/07/13 00:12:40;;;;;;;2.33;1.25;;;21.40;98.10;;;;;;5136043;27;45236;-71
2022/07/13 00:15:08;;;;;;;6.53;1.48;;;21.40;97.90;;;;;;5134783;27;45631;-70
2022/07/13 00:17:35;;;;;;;2.88;1.67;;;21.40;96.60;;;;;;5133328;27;48049;-71
2022/07/13 00:20:04;;;;;;;4.72;1.50;;;21.40;98.10;;;;;;5133346;27;45438;-70
2022/07/13 00:22:31;;;;;;;5.35;1.52;;;21.30;97.10;;;;;;5134685;27;45437;-71
2022/07/13 00:24:58;;;;;;;9.25;2.08;;;21.30;97.00;;;;;;5132108;27;45567;-71
2022/07/13 00:27:25;;;;;;;4.35;1.50;;;21.30;95.90;;;;;;5133513;27;47264;-71
2022/07/13 00:29:52;;;;;;;8.95;1.83;;;21.30;95.70;;;;;;5131063;27;45384;-71
2022/07/13 00:32:19;;;;;;;2.95;1.60;;;21.30;96.50;;;;;;5134324;27;45456;-71
2022/07/13 00:34:46;;;;;;;4.07;1.70;;;21.30;98.60;;;;;;5131439;27;45461;-72
2022/07/13 00:37:14;;;;;;;7.32;1.52;;;21.30;98.40;;;;;;5137549;27;46605;-71
2022/07/13 00:39:41;;;;;;;3.25;1.52;;;21.30;97.70;;;;;;5132395;27;45236;-72
2022/07/13 00:42:07;;;;;;;3.50;1.50;;;21.30;97.40;;;;;;5136649;27;45472;-71
2022/07/13 00:44:34;;;;;;;2.58;1.50;;;21.30;98.20;;;;;;5133040;27;45582;-71
2022/07/13 00:47:01;;;;;;;4.97;1.58;;;21.30;96.80;;;;;;5133040;27;46429;-71
2022/07/13 00:49:28;;;;;;;5.72;1.48;;;21.30;97.90;;;;;;5132753;27;45231;-70
2022/07/13 00:51:56;;;;;;;3.50;1.50;;;21.30;96.60;;;;;;5139637;27;45579;-71
2022/07/13 00:54:28;;;;;;;4.97;1.33;;;21.30;96.50;;;;;;5134607;27;45341;-71
2022/07/13 00:56:56;;;;;;;3.53;1.48;;;21.30;97.70;;;;;;5134934;27;47828;-71
2022/07/13 00:59:24;;;;;;;8.93;1.73;;;21.30;95.90;;;;;;5131392;27;45417;-70
2022/07/13 01:01:50;;;;;;;3.20;1.40;;;21.30;96.90;;;;;;5137280;27;45468;-71
2022/07/13 01:04:17;;;;;;;4.68;1.30;;;21.30;97.00;;;;;;5135269;27;45575;-71
2022/07/13 01:06:44;;;;;;;3.00;1.60;;;21.30;95.60;;;;;;5133619;27;45399;-71
2022/07/13 01:09:11;;;;;;;10.00;1.75;;;21.30;96.80;;;;;;5134800;27;45424;-70
2022/07/13 01:11:40;;;;;;;5.63;1.90;;;21.30;95.20;;;;;;5133089;27;45444;-71
2022/07/13 01:14:07;;;;;;;3.50;1.67;;;21.20;95.40;;;;;;5134885;27;45429;-71
2022/07/13 01:16:35;;;;;;;2.72;1.20;;;21.20;94.40;;;;;;5134590;27;47246;-71
2022/07/13 01:19:05;;;;;;;2.92;1.85;;;21.20;94.90;;;;;;5134322;27;45293;-73
2022/07/13 01:21:36;;;;;;;3.60;1.73;;;21.20;95.20;;;;;;5137801;27;45578;-71
2022/07/13 01:24:04;;;;;;;6.85;1.75;;;21.20;94.90;;;;;;5132901;27;45580;-71
2022/07/13 01:26:32;;;;;;;4.43;1.33;;;21.20;94.50;;;;;;5133495;27;46261;-71
2022/07/13 01:28:58;;;;;;;7.60;1.63;;;21.20;94.00;;;;;;5134575;27;45346;-71
2022/07/13 01:31:35;;;;;;;6.38;1.90;;;21.20;93.00;;;;;;5135950;27;45440;-70
2022/07/13 01:34:02;;;;;;;4.35;1.70;;;21.20;92.90;;;;;;5135749;27;45580;-71
2022/07/13 01:36:29;;;;;;;8.90;1.40;;;21.20;92.70;;;;;;5135209;27;47106;-71
2022/07/13 01:38:57;;;;;;;6.80;1.33;;;21.30;94.10;;;;;;5133305;27;45489;-70
2022/07/13 01:41:26;;;;;;;4.85;1.40;;;21.30;92.30;;;;;;5125899;27;45472;-72
2022/07/13 01:43:53;;;;;;;6.45;1.30;;;21.30;93.20;;;;;;5133553;27;45232;-70
2022/07/13 01:46:20;;;;;;;2.53;1.63;;;21.30;93.20;;;;;;5129345;27;47104;-70
2022/07/13 01:48:47;;;;;;;5.00;1.50;;;21.30;92.60;;;;;;5128218;27;45853;-70
2022/07/13 01:51:13;;;;;;;3.38;1.77;;;21.30;93.40;;;;;;5130188;27;45342;-72
2022/07/13 01:53:40;;;;;;;12.38;1.90;;;21.30;93.10;;;;;;5130081;27;45504;-71
2022/07/13 01:56:08;;;;;;;5.32;1.75;;;21.30;92.90;;;;;;5132497;27;47469;-71
2022/07/13 01:58:36;;;;;;;4.53;1.55;;;21.30;93.00;;;;;;5133621;27;45468;-71
2022/07/13 02:01:03;;;;;;;3.45;1.58;;;21.30;92.30;;;;;;5135697;27;45405;-71
2022/07/13 02:03:30;;;;;;;4.78;1.60;;;21.30;92.20;;;;;;5134901;27;45316;-71
2022/07/13 02:05:58;;;;;;;10.10;2.30;;;21.30;92.20;;;;;;5134483;27;46650;-70
2022/07/13 02:08:25;;;;;;;8.50;1.90;;;21.30;93.80;;;;;;5134017;27;45363;-71
2022/07/13 02:10:52;;;;;;;6.32;2.08;;;21.30;95.60;;;;;;5136883;27;45519;-72
2022/07/13 02:13:19;;;;;;;5.15;1.65;;;21.30;93.80;;;;;;5136413;27;45436;-71
2022/07/13 02:15:47;;;;;;;4.65;1.92;;;21.30;93.60;;;;;;5143202;27;45379;-71
2022/07/13 02:18:14;;;;;;;7.07;2.20;;;21.30;93.50;;;;;;5136206;27;45317;-71
2022/07/13 02:20:42;;;;;;;13.27;2.33;;;21.30;92.50;;;;;;5141890;27;45484;-71
2022/07/13 02:23:09;;;;;;;11.98;3.53;;;21.30;94.10;;;;;;5130271;27;45427;-71
2022/07/13 02:25:37;;;;;;;10.25;2.30;;;21.30;92.80;;;;;;5135024;27;45318;-71
2022/07/13 02:28:04;;;;;;;11.95;2.08;;;21.30;92.40;;;;;;5133615;27;45280;-71
2022/07/13 02:30:31;;;;;;;18.58;2.63;;;21.30;93.70;;;;;;5131429;27;45283;-71
2022/07/13 02:32:59;;;;;;;6.20;2.03;;;21.30;92.30;;;;;;5138295;27;45756;-71
2022/07/13 02:35:26;;;;;;;8.45;2.10;;;21.30;93.10;;;;;;5133768;27;47553;-71
2022/07/13 02:37:53;;;;;;;7.40;2.10;;;21.20;92.40;;;;;;5131493;27;45412;-71
2022/07/13 02:40:21;;;;;;;4.68;1.60;;;21.20;92.00;;;;;;5130708;27;45417;-70
2022/07/13 02:42:47;;;;;;;6.38;1.92;;;21.20;91.70;;;;;;5133306;27;45387;-71
2022/07/13 02:45:14;;;;;;;2.40;1.60;;;21.20;91.50;;;;;;5133362;27;47220;-70
2022/07/13 02:47:41;;;;;;;5.22;1.90;;;21.20;91.60;;;;;;5130261;27;45677;-71
2022/07/13 02:50:10;;;;;;;4.93;1.70;;;21.20;91.50;;;;;;5133783;27;45326;-70
2022/07/13 02:52:37;;;;;;;4.63;1.85;;;21.20;91.80;;;;;;5131525;27;45433;-71
2022/07/13 02:55:04;;;;;;;6.18;1.85;;;21.20;92.30;;;;;;5131208;27;47066;-71
2022/07/13 02:57:31;;;;;;;5.28;1.77;;;21.20;91.50;;;;;;5133582;27;45418;-71
2022/07/13 02:59:58;;;;;;;4.60;1.83;;;21.20;91.90;;;;;;5135411;27;45345;-70
2022/07/13 03:02:25;;;;;;;2.90;1.65;;;21.20;91.40;;;;;;5129686;27;45394;-70
2022/07/13 03:04:52;;;;;;;2.65;1.70;;;21.20;91.00;;;;;;5136520;27;46144;-71
2022/07/13 03:07:20;;;;;;;6.28;1.67;;;21.20;90.90;;;;;;5136654;27;45532;-71
2022/07/13 03:09:46;;;;;;;3.95;1.70;;;21.20;91.30;;;;;;5136146;27;45379;-70
2022/07/13 03:12:13;;;;;;;5.20;1.50;;;21.10;91.40;;;;;;5132254;27;45632;-72
2022/07/13 03:14:40;;;;;;;5.35;1.80;;;21.10;91.50;;;;;;5133087;27;48128;-71
2022/07/13 03:17:07;;;;;;;4.85;1.77;;;21.10;91.50;;;;;;5133133;27;45611;-70
2022/07/13 03:19:34;;;;;;;3.15;1.75;;;21.10;91.60;;;;;;5133219;27;45403;-71
2022/07/13 03:22:03;;;;;;;5.28;1.77;;;21.00;91.90;;;;;;5135966;27;45356;-71
2022/07/13 03:24:32;;;;;;;5.63;1.80;;;21.00;92.50;;;;;;5131005;27;47632;-72
2022/07/13 03:26:58;;;;;;;6.07;2.10;;;21.00;92.40;;;;;;5138057;27;45360;-71
2022/07/13 03:29:25;;;;;;;3.30;1.80;;;21.00;91.90;;;;;;5136224;27;45555;-71
2022/07/13 03:31:52;;;;;;;7.90;1.60;;;21.10;91.40;;;;;;5136673;27;45328;-71
2022/07/13 03:34:19;;;;;;;4.30;1.80;;;21.10;91.00;;;;;;5135799;27;45561;-70
2022/07/13 03:36:46;;;;;;;6.57;2.10;;;21.10;91.00;;;;;;5133830;27;45574;-70
2022/07/13 03:39:13;;;;;;;4.57;1.50;;;21.10;90.80;;;;;;5145583;27;45422;-71
2022/07/13 03:41:41;;;;;;;2.10;1.38;;;21.10;90.80;;;;;;5139038;27;45366;-71
2022/07/13 03:44:07;;;;;;;7.38;1.80;;;21.10;91.30;;;;;;5134288;27;46393;-71
2022/07/13 03:46:34;;;;;;;2.67;1.50;;;21.10;91.30;;;;;;5145067;27;45333;-71
2022/07/13 03:49:01;;;;;;;7.53;1.55;;;21.10;91.20;;;;;;5141638;27;45382;-71
2022/07/13 03:51:28;;;;;;;3.03;1.75;;;21.00;91.70;;;;;;5137268;27;45500;-71
2022/07/13 03:53:55;;;;;;;10.95;2.33;;;21.00;92.00;;;;;;5135872;27;47517;-71
2022/07/13 03:56:21;;;;;;;5.53;1.90;;;21.00;92.40;;;;;;5140275;27;45339;-71
2022/07/13 03:58:49;;;;;;;8.63;2.55;;;21.00;93.10;;;;;;5142508;27;45467;-71
2022/07/13 04:01:18;;;;;;;5.72;2.08;;;21.00;92.90;;;;;;5144031;27;45586;-70
2022/07/13 04:03:45;;;;;;;5.03;1.85;;;20.90;93.00;;;;;;5137399;27;46561;-71
2022/07/13 04:06:12;;;;;;;3.85;1.45;;;20.90;93.30;;;;;;5136258;27;45517;-71
2022/07/13 04:08:38;;;;;;;4.65;1.83;;;20.90;93.40;;;;;;5135735;27;45354;-71
2022/07/13 04:11:05;;;;;;;3.67;1.63;;;20.90;92.80;;;;;;5137153;27;45369;-71
2022/07/13 04:13:32;;;;;;;7.75;1.60;;;21.00;92.70;;;;;;5134865;27;46147;-70
2022/07/13 04:16:00;;;;;;;3.53;1.67;;;21.00;92.30;;;;;;5140206;27;45413;-70
2022/07/13 04:18:27;;;;;;;5.88;1.60;;;21.00;91.80;;;;;;5135086;27;45428;-70
2022/07/13 04:20:54;;;;;;;7.28;1.60;;;21.00;91.70;;;;;;5138028;27;45497;-71
2022/07/13 04:23:21;;;;;;;7.05;1.65;;;21.00;91.60;;;;;;5125918;27;46300;-70
2022/07/13 04:25:47;;;;;;;6.38;1.30;;;21.00;91.70;;;;;;5135058;27;45565;-71
2022/07/13 04:28:14;;;;;;;3.72;1.15;;;21.00;91.50;;;;;;5131368;27;45633;-71
2022/07/13 04:30:41;;;;;;;4.78;1.70;;;21.00;91.20;;;;;;5135249;27;45456;-71
2022/07/13 04:33:09;;;;;;;2.72;1.60;;;21.00;91.20;;;;;;5129550;27;45602;-71
2022/07/13 04:35:36;;;;;;;2.28;1.15;;;21.00;91.40;;;;;;5139595;27;45310;-71
2022/07/13 04:38:02;;;;;;;1.60;1.20;;;21.00;91.80;;;;;;5135019;27;45350;-70
2022/07/13 04:40:29;;;;;;;3.63;1.55;;;21.00;94.40;;;;;;5131557;27;45630;-70
2022/07/13 04:42:56;;;;;;;2.90;1.38;;;21.00;94.00;;;;;;5136692;27;46464;-71
2022/07/13 04:45:23;;;;;;;4.47;1.60;;;21.00;92.00;;;;;;5140837;27;45320;-70
2022/07/13 04:47:50;;;;;;;2.50;1.45;;;21.00;91.80;;;;;;5139861;27;45245;-71
2022/07/13 04:50:19;;;;;;;2.72;1.55;;;21.00;93.40;;;;;;5143738;27;45313;-71
2022/07/13 04:52:45;;;;;;;4.20;1.50;;;21.00;92.90;;;;;;5144338;27;45320;-71
2022/07/13 04:55:12;;;;;;;4.05;1.83;;;21.00;92.70;;;;;;5143593;27;45650;-71
2022/07/13 04:57:39;;;;;;;4.95;1.38;;;21.00;92.10;;;;;;5129139;27;45234;-71
2022/07/13 05:00:07;;;;;;;4.95;1.30;;;21.10;91.70;;;;;;5123814;27;45274;-71
2022/07/13 05:02:34;;;;;;;4.47;1.50;;;21.10;91.30;;;;;;5122457;27;46931;-70
2022/07/13 05:05:01;;;;;;;2.88;1.48;;;21.10;91.10;;;;;;5136654;27;45412;-70
2022/07/13 05:07:29;;;;;;;5.90;1.58;;;21.10;92.10;;;;;;5144806;27;45259;-71
2022/07/13 05:09:56;;;;;;;6.50;1.33;;;21.10;91.20;;;;;;5144456;27;45304;-71
2022/07/13 05:12:23;;;;;;;4.68;1.15;;;21.10;91.60;;;;;;5143934;27;46361;-71
2022/07/13 05:14:50;;;;;;;3.65;1.50;;;21.20;91.10;;;;;;5128439;27;45330;-70
2022/07/13 05:17:17;;;;;;;4.60;1.52;;;21.20;91.00;;;;;;5123503;27;45353;-72
2022/07/13 05:19:44;;;;;;;7.15;1.10;;;21.20;91.40;;;;;;5141909;27;45240;-70
2022/07/13 05:22:11;;;;;;;8.52;1.50;;;21.20;91.20;;;;;;5144629;27;46366;-71
2022/07/13 05:24:43;;;;;;;8.52;2.28;;;21.20;91.00;;;;;;5143975;27;45270;-71
2022/07/13 05:27:11;;;;;;;4.55;1.17;;;21.20;90.80;;;;;;5144546;27;45425;-71
2022/07/13 05:29:38;;;;;;;2.13;1.15;;;21.20;90.70;;;;;;5140057;27;45567;-71
2022/07/13 05:32:05;;;;;;;6.72;1.15;;;21.20;90.80;;;;;;5137481;27;45300;-71
2022/07/13 05:34:32;;;;;;;2.35;1.30;;;21.20;91.10;;;;;;5144187;27;45407;-70
2022/07/13 05:36:58;;;;;;;2.65;1.27;;;21.30;90.80;;;;;;5145258;27;45303;-71
2022/07/13 05:39:25;;;;;;;4.70;1.95;;;21.30;90.70;;;;;;5147900;27;45523;-71
2022/07/13 05:41:53;;;;;;;6.43;1.23;;;21.30;90.90;;;;;;5146784;27;46358;-71
2022/07/13 05:44:21;;;;;;;4.93;1.20;;;21.30;91.50;;;;;;5137004;27;45651;-70
2022/07/13 05:46:47;;;;;;;3.72;1.40;;;21.30;90.90;;;;;;5140815;27;45443;-71
2022/07/13 05:49:14;;;;;;;2.55;1.30;;;21.40;92.00;;;;;;5135514;27;45385;-70
2022/07/13 05:51:41;;;;;;;5.72;1.50;;;21.40;92.20;;;;;;5137116;27;45278;-71
2022/07/13 05:54:08;;;;;;;7.15;1.55;;;21.40;92.60;;;;;;5135496;27;45346;-70
2022/07/13 05:56:35;;;;;;;2.63;1.27;;;21.40;92.90;;;;;;5132505;27;45371;-71
2022/07/13 05:59:03;;;;;;;5.63;1.23;;;21.40;94.10;;;;;;5127035;27;45399;-72
2022/07/13 06:01:30;;;;;;;2.08;1.30;;;21.40;93.50;;;;;;5126759;27;46090;-71
2022/07/13 06:03:56;;;;;;;3.67;1.38;;;21.40;93.00;;;;;;5126073;27;45275;-70
2022/07/13 06:06:23;;;;;;;2.08;1.17;;;21.40;92.80;;;;;;5139182;27;45422;-70
2022/07/13 06:08:50;;;;;;;4.38;1.75;;;21.40;92.90;;;;;;5139171;27;45615;-71
2022/07/13 06:11:17;;;;;;;5.40;1.30;;;21.40;93.00;;;;;;5138883;27;48467;-71
2022/07/13 06:13:43;;;;;;;5.05;1.20;;;21.40;93.60;;;;;;5137583;27;45446;-71
2022/07/13 06:16:11;;;;;;;2.67;1.27;;;21.40;93.90;;;;;;5139469;27;45299;-71
2022/07/13 06:18:38;;;;;;;3.15;1.13;;;21.40;94.00;;;;;;5142055;27;45476;-71
2022/07/13 06:21:05;;;;;;;3.80;1.35;;;21.40;94.10;;;;;;5144418;27;48148;-71
2022/07/13 06:23:32;;;;;;;7.15;1.23;;;21.40;94.70;;;;;;5142558;27;45301;-71
2022/07/13 06:25:59;;;;;;;5.18;1.50;;;21.40;94.70;;;;;;5141417;27;45735;-71
2022/07/13 06:28:26;;;;;;;8.65;1.55;;;21.40;95.20;;;;;;5138822;27;45342;-71
2022/07/13 06:30:53;;;;;;;4.25;1.52;;;21.40;94.80;;;;;;5140499;27;46322;-71
2022/07/13 06:33:21;;;;;;;2.97;1.38;;;21.40;95.10;;;;;;5136514;27;45372;-71
2022/07/13 06:35:48;;;;;;;1.55;1.30;;;21.50;95.30;;;;;;5135114;27;45332;-70
2022/07/13 06:38:15;;;;;;;2.95;1.17;;;21.50;95.80;;;;;;5127298;27;45371;-70
2022/07/13 06:40:42;;;;;;;2.63;1.25;;;21.50;96.40;;;;;;5146555;27;47705;-72
2022/07/13 06:43:09;;;;;;;2.47;1.23;;;21.50;97.50;;;;;;5146728;27;45304;-71
2022/07/13 06:45:36;;;;;;;3.10;1.30;;;21.50;97.70;;;;;;5142417;27;45307;-71
2022/07/13 06:48:03;;;;;;;2.03;1.30;;;21.50;97.70;;;;;;5139357;27;45505;-71
2022/07/13 06:50:31;;;;;;;1.70;1.20;;;21.50;97.00;;;;;;5134691;27;47505;-71
2022/07/13 06:52:58;;;;;;;2.55;1.13;;;21.50;96.50;;;;;;5135378;27;45572;-71
2022/07/13 06:55:25;;;;;;;3.20;1.25;;;21.50;96.10;;;;;;5134229;27;45430;-71
2022/07/13 06:57:52;;;;;;;3.67;1.35;;;21.50;96.80;;;;;;5146229;27;45260;-71
2022/07/13 07:00:19;;;;;;;3.78;1.30;;;21.50;96.40;;;;;;5146043;27;46330;-70
2022/07/13 07:02:45;;;;;;;3.55;0.98;;;21.50;95.90;;;;;;5145560;27;45282;-71
2022/07/13 07:05:12;;;;;;;1.98;1.00;;;21.50;95.90;;;;;;5146281;27;45239;-71
2022/07/13 07:07:42;;;;;;;3.53;1.05;;;21.50;95.90;;;;;;5147009;27;45549;-71
2022/07/13 07:10:10;;;;;;;1.85;0.98;;;21.50;97.30;;;;;;5145835;27;48467;-70
2022/07/13 07:12:38;;;;;;;1.95;1.05;;;21.50;96.70;;;;;;5140140;27;45357;-70
2022/07/13 07:15:06;;;;;;;2.17;1.25;;;21.50;96.90;;;;;;5126307;27;45420;-71
2022/07/13 07:17:33;;;;;;;1.83;1.10;;;21.50;96.80;;;;;;5131020;27;45480;-71
2022/07/13 07:20:00;;;;;;;2.92;1.00;;;21.50;96.50;;;;;;5145054;27;46648;-71
2022/07/13 07:22:27;;;;;;;1.67;0.90;;;21.50;96.20;;;;;;5145947;27;45665;-71
2022/07/13 07:24:56;;;;;;;1.40;0.80;;;21.50;96.50;;;;;;5146018;27;45378;-71
2022/07/13 07:27:23;;;;;;;3.50;1.40;;;21.50;96.20;;;;;;5146729;27;45223;-70
2022/07/13 07:29:50;;;;;;;1.48;0.80;;;21.60;95.10;;;;;;5140513;27;46578;-72
2022/07/13 07:32:16;;;;;;;3.85;0.90;;;21.60;95.00;;;;;;5133458;27;46227;-70
2022/07/13 07:34:43;;;;;;;16.38;2.47;;;21.60;94.00;;;;;;5145742;27;45209;-70
2022/07/13 07:37:10;;;;;;;12.32;1.85;;;21.70;93.70;;;;;;5146219;27;45382;-71
2022/07/13 07:39:37;;;;;;;3.30;1.27;;;21.90;93.80;;;;;;5141611;27;46242;-70
2022/07/13 07:42:06;;;;;;;2.08;1.00;;;22.30;92.80;;;;;;5125218;27;45401;-71
2022/07/13 07:44:33;;;;;;;6.38;1.50;;;22.40;92.70;;;;;;5125234;27;45270;-71
2022/07/13 07:46:59;;;;;;;3.60;1.60;;;22.60;91.00;;;;;;5125882;27;45583;-70
2022/07/13 07:49:26;;;;;;;2.85;1.23;;;22.70;91.40;;;;;;5124495;27;47774;-71
2022/07/13 07:51:53;;;;;;;3.20;0.93;;;22.90;87.70;;;;;;5125469;27;45412;-71
2022/07/13 07:54:20;;;;;;;6.57;1.30;;;23.00;90.80;;;;;;5125279;27;45362;-70
2022/07/13 07:56:46;;;;;;;3.58;1.33;;;23.00;80.80;;;;;;5136326;27;45495;-71
2022/07/13 07:59:15;;;;;;;4.45;1.25;;;23.00;82.50;;;;;;5141730;27;48040;-70
2022/07/13 08:01:42;;;;;;;3.00;1.55;;;23.10;82.70;;;;;;5135364;27;45352;-70
2022/07/13 08:04:09;;;;;;;4.82;1.23;;;23.20;90.70;;;;;;5138714;27;45523;-71
2022/07/13 08:06:36;;;;;;;2.85;1.63;;;23.30;78.00;;;;;;5146814;27;45423;-70
2022/07/13 08:09:03;;;;;;;2.83;1.10;;;23.60;76.60;;;;;;5142076;27;46547;-71
2022/07/13 08:11:30;;;;;;;1.92;1.20;;;23.60;83.90;;;;;;5141346;27;45196;-71
2022/07/13 08:13:57;;;;;;;3.05;1.55;;;23.70;74.70;;;;;;5145451;27;45357;-71
2022/07/13 08:16:25;;;;;;;2.83;1.40;;;24.40;69.80;;;;;;5136516;27;45385;-70
2022/07/13 08:18:53;;;;;;;4.45;1.67;;;24.10;73.40;;;;;;5142499;27;48032;-71
2022/07/13 08:21:20;;;;;;;4.88;1.65;;;23.80;74.70;;;;;;5141552;27;45452;-71
2022/07/13 08:23:52;;;;;;;4.93;1.60;;;23.60;73.70;;;;;;5146435;27;45315;-71
2022/07/13 08:26:20;;;;;;;4.20;1.80;;;23.50;75.30;;;;;;5137561;27;45482;-70
2022/07/13 08:28:47;;;;;;;3.55;1.98;;;23.30;78.90;;;;;;5145234;27;47593;-70
2022/07/13 08:31:14;;;;;;;5.05;1.58;;;23.20;76.80;;;;;;5144195;27;46560;-70
2022/07/13 08:39:12;;;;;;;9.82;2.00;;;23.30;71.90;;;;;;5143657;27;45777;-70
2022/07/13 08:41:39;;;;;;;1.95;1.13;;;23.40;71.70;;;;;;5145111;27;45270;-70
2022/07/13 08:44:06;;;;;;;3.60;1.45;;;23.40;72.40;;;;;;5144175;27;45370;-70
2022/07/13 08:46:33;;;;;;;4.80;1.40;;;23.50;71.30;;;;;;5144964;27;45372;-71
2022/07/13 08:49:03;;;;;;;7.75;1.52;;;23.90;69.10;;;;;;5141799;27;46594;-70
2022/07/13 08:51:32;;;;;;;3.25;1.65;;;24.50;65.20;;;;;;5123989;27;45200;-70
2022/07/13 08:54:00;;;;;;;3.08;1.40;;;24.50;65.20;;;;;;5124782;27;45523;-71
2022/07/13 08:56:27;;;;;;;10.38;1.90;;;24.60;64.50;;;;;;5124513;27;45405;-71
2022/07/13 08:58:54;;;;;;;6.28;1.50;;;24.70;64.30;;;;;;5123983;27;45266;-71
2022/07/13 09:01:21;;;;;;;5.28;1.50;;;24.40;67.50;;;;;;5123574;27;45355;-70
2022/07/13 09:03:48;;;;;;;3.53;1.58;;;24.70;66.00;;;;;;5122932;27;45466;-71
2022/07/13 09:06:45;;;;;;;4.55;1.38;;;24.40;71.10;;;;;;5123888;27;45336;-71
2022/07/13 09:09:33;;;;;;;4.82;1.48;;;24.40;65.60;;;;;;5141455;27;45351;-70
2022/07/13 09:12:16;;;;;;;5.28;1.67;;;24.10;67.30;;;;;;5141658;27;45283;-70
2022/07/13 09:14:44;;;;;;;3.90;1.45;;;23.90;66.30;;;;;;5142145;27;45274;-70
2022/07/13 09:17:30;;;;;;;9.85;1.80;;;24.10;67.40;;;;;;5125429;27;45369;-71
2022/07/13 09:19:57;;;;;;;7.65;1.85;;;23.90;65.50;;;;;;5140560;27;47484;-70
2022/07/13 09:22:25;;;;;;;6.68;1.27;;;23.90;65.40;;;;;;5132950;27;45533;-70
2022/07/13 09:24:53;;;;;;;3.85;1.67;;;23.80;69.80;;;;;;5141334;27;45392;-71
2022/07/13 09:27:21;;;;;;;2.30;1.75;;;23.70;68.50;;;;;;5143386;27;45439;-71
2022/07/13 09:29:48;;;;;;;4.15;1.40;;;23.50;71.80;;;;;;5126014;27;46561;-70
2022/07/13 09:32:16;;;;;;;4.32;1.60;;;23.50;71.40;;;;;;5123773;27;45489;-70
2022/07/13 09:34:53;;;;;;;6.10;1.42;;;23.50;74.20;;;;;;5123224;27;45284;-70
2022/07/13 09:37:22;;;;;;;3.92;1.58;;;23.30;71.80;;;;;;5122263;27;45430;-70
2022/07/13 09:40:08;;;;;;;2.75;2.05;;;23.50;68.50;;;;;;5122582;27;47110;-70
2022/07/13 09:42:37;;;;;;;4.60;1.60;;;23.60;71.70;;;;;;5123699;27;45317;-71
2022/07/13 09:47:52;;;;;;;4.57;1.30;;;23.50;72.50;;;;;;5121763;27;45284;-71
2022/07/13 09:50:20;;;;;;;2.90;1.23;;;23.50;73.30;;;;;;5134819;27;45288;-71
2022/07/13 09:52:47;;;;;;;4.03;1.67;;;23.40;73.10;;;;;;5124911;27;45814;-71
2022/07/13 09:55:20;;;;;;;5.45;1.50;;;23.30;70.50;;;;;;5123814;27;45289;-71
2022/07/13 09:57:49;;;;;;;4.53;1.42;;;23.30;71.90;;;;;;5123354;27;45589;-70
2022/07/13 10:00:20;;;;;;;5.38;1.40;;;23.70;69.40;;;;;;5123127;27;45424;-70
2022/07/13 10:02:48;;;;;;;7.78;1.60;;;23.70;70.00;;;;;;5134098;27;45356;-70
2022/07/13 10:05:17;;;;;;;4.13;1.77;;;23.60;69.40;;;;;;5123493;27;45273;-70
2022/07/13 10:07:44;;;;;;;1.80;1.45;;;23.50;70.40;;;;;;5123560;27;45480;-70
2022/07/13 10:10:13;;;;;;;4.05;1.27;;;23.40;74.70;;;;;;5121993;27;46284;-70
2022/07/13 10:12:41;;;;;;;4.38;1.48;;;23.40;72.30;;;;;;5123687;27;45487;-71
2022/07/13 10:15:09;;;;;;;7.80;1.30;;;23.80;70.60;;;;;;5123481;27;45392;-70
2022/07/13 10:17:37;;;;;;;4.38;1.30;;;23.70;70.80;;;;;;5122215;27;45456;-70
2022/07/13 10:20:09;;;;;;;2.72;1.20;;;23.70;70.90;;;;;;5122951;27;47341;-70
2022/07/13 10:22:39;;;;;;;2.40;1.60;;;23.50;71.60;;;;;;5124525;27;45472;-70
2022/07/13 10:25:07;;;;;;;3.50;1.30;;;23.40;73.90;;;;;;5127011;27;45256;-70
2022/07/13 10:27:36;;;;;;;6.53;1.50;;;23.40;75.60;;;;;;5126273;27;45414;-71
2022/07/13 10:30:06;;;;;;;8.38;1.52;;;23.40;75.40;;;;;;5125498;27;48265;-70
2022/07/13 10:32:34;;;;;;;4.22;1.50;;;23.60;72.20;;;;;;5127926;27;45367;-70
2022/07/13 10:35:04;;;;;;;9.50;1.77;;;23.80;72.10;;;;;;5129834;27;45315;-70
2022/07/13 10:38:09;;;;;;;3.40;1.30;;;24.80;69.10;;;;;;5132366;27;45299;-71
2022/07/13 10:40:37;;;;;;;2.83;1.30;;;25.20;67.10;;;;;;5125566;27;46586;-70
2022/07/13 10:43:19;;;;;;;3.28;1.58;;;25.00;69.50;;;;;;5126469;27;45417;-71
2022/07/13 10:45:51;;;;;;;8.23;1.42;;;24.50;70.90;;;;;;5126153;27;45407;-71
2022/07/13 10:48:40;;;;;;;5.03;1.50;;;24.20;71.10;;;;;;5132857;27;45391;-70
2022/07/13 10:51:18;;;;;;;1.67;1.20;;;24.20;72.40;;;;;;5132248;27;46202;-70
2022/07/13 10:54:09;;;;;;;3.15;1.45;;;23.90;73.40;;;;;;5129914;27;45327;-70
2022/07/13 10:56:35;;;;;;;2.65;1.20;;;23.80;73.90;;;;;;5136483;27;45419;-70
2022/07/13 10:59:03;;;;;;;3.15;1.40;;;23.70;76.00;;;;;;5134157;27;45703;-71
2022/07/13 11:01:42;;;;;;;3.78;1.20;;;23.90;73.60;;;;;;5125175;27;47474;-70
2022/07/13 11:04:11;;;;;;;4.63;1.13;;;24.40;71.50;;;;;;5128108;27;45334;-71
2022/07/13 11:06:38;;;;;;;1.67;1.23;;;24.40;71.10;;;;;;5132735;27;45502;-69
2022/07/13 11:09:14;;;;;;;5.38;1.30;;;24.60;70.50;;;;;;5136330;27;45381;-70
2022/07/13 11:11:48;;;;;;;24.73;2.25;;;24.90;69.60;;;;;;5139021;27;46600;-70
2022/07/13 11:14:47;;;;;;;12.75;1.55;;;25.00;69.30;;;;;;5134500;27;45475;-70
2022/07/13 11:17:16;;;;;;;8.60;1.40;;;24.30;73.40;;;;;;5132223;27;45413;-71
2022/07/13 11:19:51;;;;;;;10.45;1.92;;;24.60;71.30;;;;;;5130867;27;45386;-71
2022/07/13 11:22:18;;;;;;;4.60;1.10;;;24.20;74.60;;;;;;5140876;27;45629;-70
2022/07/13 11:27:45;;;;;;;5.28;1.52;;;24.30;72.10;;;;;;5138418;27;45577;-71
2022/07/13 11:30:15;;;;;;;2.83;1.02;;;24.90;69.40;;;;;;5133886;27;45431;-71
2022/07/13 11:32:44;;;;;;;1.67;0.85;;;25.50;66.30;;;;;;5134840;27;46289;-71
2022/07/13 11:35:12;;;;;;;9.55;1.23;;;24.90;69.70;;;;;;5135039;27;45382;-70
2022/07/13 11:37:43;;;;;;;5.75;1.23;;;24.70;69.80;;;;;;5131713;27;45452;-71
2022/07/13 11:40:11;;;;;;;4.03;1.00;;;24.90;72.10;;;;;;5129807;27;45551;-71
2022/07/13 11:42:38;;;;;;;4.50;1.00;;;25.00;69.90;;;;;;5135259;27;46252;-71
2022/07/13 11:45:05;;;;;;;2.35;0.93;;;25.30;67.80;;;;;;5134470;27;45498;-70
2022/07/13 11:47:32;;;;;;;10.23;1.10;;;24.70;71.60;;;;;;5136611;27;45424;-71
2022/07/13 11:50:00;;;;;;;3.40;0.98;;;24.40;74.20;;;;;;5134011;27;45867;-70
2022/07/13 11:52:29;;;;;;;1.42;1.00;;;24.00;74.20;;;;;;5136943;27;46927;-71
2022/07/13 11:54:58;;;;;;;1.73;0.85;;;23.90;76.80;;;;;;5140527;27;45346;-71
2022/07/13 11:57:26;;;;;;;2.60;1.20;;;23.70;76.40;;;;;;5138083;27;45460;-71
2022/07/13 11:59:53;;;;;;;4.22;1.13;;;24.10;76.40;;;;;;5144396;27;45471;-71
2022/07/13 12:02:20;;;;;;;3.20;1.30;;;23.90;76.80;;;;;;5131139;27;45586;-70
2022/07/13 12:04:48;;;;;;;4.93;1.00;;;24.30;74.00;;;;;;5141863;27;45939;-71
2022/07/13 12:07:18;;;;;;;1.85;1.20;;;24.30;74.50;;;;;;5132818;27;45319;-70
2022/07/13 12:09:52;;;;;;;3.38;1.40;;;24.10;76.10;;;;;;5132528;27;45535;-72
2022/07/13 12:12:21;;;;;;;2.50;1.20;;;25.00;72.60;;;;;;5129973;27;47453;-71
2022/07/13 12:14:49;;;;;;;4.65;1.25;;;26.00;67.60;;;;;;5138431;27;45368;-71
2022/07/13 12:17:15;;;;;;;2.42;0.95;;;25.80;68.20;;;;;;5135376;27;45317;-71
2022/07/13 12:19:42;;;;;;;3.22;0.80;;;26.00;66.70;;;;;;5125108;27;45403;-71
2022/07/13 12:22:09;;;;;;;2.58;1.05;;;25.70;69.60;;;;;;5121224;27;48338;-69
2022/07/13 12:24:43;;;;;;;2.22;1.33;;;24.90;72.70;;;;;;5124569;27;45402;-70
2022/07/13 12:27:19;;;;;;;2.58;1.13;;;24.50;74.90;;;;;;5135939;27;45293;-70
2022/07/13 12:29:46;;;;;;;3.88;1.15;;;24.70;74.00;;;;;;5138406;27;45531;-72
2022/07/13 12:32:13;;;;;;;5.22;1.30;;;24.30;77.60;;;;;;5131157;27;46685;-75
2022/07/13 12:34:50;;;;;;;1.73;1.10;;;24.10;77.50;;;;;;5128438;27;45766;-72
2022/07/13 12:37:32;;;;;;;2.83;1.48;;;24.10;79.10;;;;;;5143031;27;45376;-73
2022/07/13 12:40:00;;;;;;;6.72;1.40;;;24.30;80.80;;;;;;5129049;27;45749;-71
2022/07/13 12:42:27;;;;;;;3.53;1.27;;;24.00;79.00;;;;;;5139847;27;47541;-72
2022/07/13 12:44:55;;;;;;;3.85;1.40;;;24.00;86.10;;;;;;5141306;27;45368;-72
2022/07/13 12:47:24;;;;;;;6.10;1.30;;;23.70;88.30;;;;;;5139394;27;45337;-72
2022/07/13 12:49:51;;;;;;;3.05;1.40;;;24.70;79.70;;;;;;5134227;27;45514;-73
2022/07/13 12:52:19;;;;;;;3.50;1.20;;;24.30;85.30;;;;;;5135727;27;46375;-73
2022/07/13 12:54:48;;;;;;;3.83;1.27;;;24.10;85.60;;;;;;5132706;27;45321;-73
2022/07/13 12:57:18;;;;;;;2.08;1.25;;;24.20;85.30;;;;;;5134476;27;45412;-73
2022/07/13 13:00:05;;;;;;;6.72;1.45;;;25.60;74.70;;;;;;5138186;27;45642;-73
2022/07/13 13:02:32;;;;;;;8.70;1.55;;;25.60;78.00;;;;;;5144803;27;47327;-73